METAR AND TAF INFORMATION
METAR FOR LIPQ
ADDS - METARS form results

(0537 UTC 14 October 2019)
Data provider http://aviationweather.gov/metar/data/
 
METAR text: LIPQ 140520Z VRB01KT 4000 MIFG BKN030 12/12 Q1022
Conditions at: LIPQ (RONCHI LEGIONARI, IT) observed 0520 UTC 14 October 2019
Temperature: 12.0°C (54°F)
Dewpoint: 12.0°C (54°F) [RH = 100%]
Pressure (altimeter): 30.18 inches Hg (1022.0 mb)
Winds: variable direction winds at 1 MPH (1 knots; 0.5 m/s)
Visibility: 2.49 miles (4.01 km)
Ceiling: 3000 feet AGL
Clouds: broken clouds at 3000 feet AGL
Weather: MIFG  (shallow fog)

METAR text: LIPQ 140450Z 08001KT 5000 BR BKN025 12/12 Q1022
Conditions at: LIPQ (RONCHI LEGIONARI, IT) observed 0450 UTC 14 October 2019
Temperature: 12.0°C (54°F)
Dewpoint: 12.0°C (54°F) [RH = 100%]
Pressure (altimeter): 30.18 inches Hg (1022.0 mb)
Winds: from the E (80 degrees) at 1 MPH (1 knots; 0.5 m/s)
Visibility: 3 miles ( 5 km)
Ceiling: 2500 feet AGL
Clouds: broken clouds at 2500 feet AGL
Weather: BR  (mist)

Forecast for: LIPQ (RONCHI LEGIONARI, IT)
Text: TAF LIPQ 140500Z 1406/1506 VRB05KT 4000 BR SCT030
Forecast period: 0600 to 0900 UTC 14 October 2019
Forecast type: FROM: standard forecast or significant change
Winds: variable direction winds at 6 MPH (5 knots; 2.6 m/s)
Visibility: 2.49 miles (4.01 km)
Ceiling: at least 12,000 feet AGL
Clouds: scattered clouds at 3000 feet AGL
Weather: BR  (mist)
Text: TEMPO 1406/1409 2000
Forecast period: 0600 to 0900 UTC 14 October 2019
Forecast type: TEMPORARY: The following changes expected for less than half the time period
Visibility: 1.24 miles (2.00 km)
Ceiling: unknown
Clouds: missing
Weather: no significant weather forecast for this period
Text: BECMG 1409/1411 7000
Forecast period: 0900 UTC 14 October 2019 to 0600 UTC 15 October 2019
Forecast type: BECOMING: Conditions expected to become as follows by 1100 UTC 14 October 2019
Winds: variable direction winds at 6 MPH (5 knots; 2.6 m/s)
Visibility: 4 miles (7 km)
Ceiling: at least 12,000 feet AGL
Clouds: scattered clouds at 3000 feet AGL
Weather: BR  (mist)

 AIRPORT MAP

 RUNWAY INFORMATION
Runway 09 Runway length 9843 ft Runway width 148 ft
Runway elevation 37 ft Runway displaced threshold 656 ft Runway heading 90
Runway 27 Runway length 9843 ft Runway width 148 ft
Runway elevation 36 ft Runway displaced threshold 0 ft Runway heading 270

 AIRPORT FREQUENCIES
Type APP Name APP Frequency 119.175 MHZ
Type TWR Name TWR Frequency 130.2 MHZ

 AIRPORT NEAR NAVIGATION AIDS
Type VOR-DME Name Ronchi Frequency 114200 KHZ
Type NDB Name Ronchi Frequency 396 KHZ